Time;durP1;ratioP1;P1;durP2;ratioP2;P2;SDS_P1;SDS_P2;PMS_P1;PMS_P2;Temp;Humidity;BMP_temperature;BMP_pressure;BME280_temperature;BME280_humidity;BME280_pressure;Samples;Min_cycle;Max_cycle;Signal;HPM_P1;HPM_P2
2022/01/09 00:01:27;;;;;;;8.43;5.32;;;5.10;99.90;;;;;;5092321;28;20075;-75
2022/01/09 00:03:52;;;;;;;8.63;5.28;;;5.10;99.90;;;;;;5091799;28;20043;-75
2022/01/09 00:06:18;;;;;;;7.30;5.10;;;5.10;99.90;;;;;;5091807;28;20048;-75
2022/01/09 00:08:44;;;;;;;9.55;5.78;;;5.20;99.90;;;;;;5092479;28;20043;-75
2022/01/09 00:11:14;;;;;;;8.55;5.80;;;5.10;99.90;;;;;;5091786;28;20494;-75
2022/01/09 00:13:41;;;;;;;7.82;5.60;;;5.10;99.90;;;;;;5075123;28;20059;-75
2022/01/09 00:16:07;;;;;;;8.32;5.60;;;4.80;99.90;;;;;;5091005;28;20051;-75
2022/01/09 00:18:33;;;;;;;10.27;6.32;;;5.10;99.90;;;;;;5093546;28;20388;-75
2022/01/09 00:21:05;;;;;;;8.23;5.53;;;5.20;99.90;;;;;;5087245;28;20467;-74
2022/01/09 00:23:31;;;;;;;7.07;5.25;;;5.10;99.90;;;;;;5092512;28;20123;-74
2022/01/09 00:25:57;;;;;;;7.50;5.57;;;5.20;99.90;;;;;;5091407;28;20043;-74
2022/01/09 00:28:23;;;;;;;8.13;5.55;;;5.20;99.90;;;;;;5091211;28;20048;-74
2022/01/09 00:30:48;;;;;;;8.43;6.30;;;5.20;99.90;;;;;;5091477;28;20066;-74
2022/01/09 00:33:14;;;;;;;7.68;5.53;;;;;;;;;;5093929;28;20040;-74
2022/01/09 00:35:40;;;;;;;15.15;8.30;;;5.20;99.90;;;;;;5094036;28;20054;-74
2022/01/09 00:38:06;;;;;;;12.05;7.18;;;5.20;99.90;;;;;;5094268;28;20040;-74
2022/01/09 00:40:31;;;;;;;18.95;9.82;;;5.20;99.90;;;;;;5077484;28;20047;-74
2022/01/09 00:42:57;;;;;;;14.32;7.88;;;5.30;99.90;;;;;;5077290;28;20118;-74
2022/01/09 00:45:22;;;;;;;12.30;8.13;;;7.20;99.90;;;;;;5095350;28;20088;-74
2022/01/09 00:47:48;;;;;;;13.00;7.55;;;7.00;99.90;;;;;;5094317;28;20412;-74
2022/01/09 00:50:15;;;;;;;10.50;6.85;;;5.10;99.90;;;;;;5094212;28;20047;-74
2022/01/09 00:52:41;;;;;;;8.93;6.38;;;5.20;99.90;;;;;;5095038;28;20456;-74
2022/01/09 00:55:08;;;;;;;10.73;6.88;;;5.10;99.90;;;;;;5093654;28;20134;-74
2022/01/09 00:57:34;;;;;;;9.05;6.88;;;;;;;;;;5095057;28;20039;-74
2022/01/09 01:00:00;;;;;;;11.00;8.00;;;;;;;;;;5094047;28;20491;-73
2022/01/09 01:02:26;;;;;;;13.43;8.85;;;5.20;99.90;;;;;;5077743;28;20042;-73
2022/01/09 01:04:51;;;;;;;11.10;7.75;;;5.20;99.90;;;;;;5076946;28;20484;-74
2022/01/09 01:07:21;;;;;;;13.77;10.07;;;5.20;99.90;;;;;;5094660;28;20044;-73
2022/01/09 01:09:46;;;;;;;10.57;7.53;;;5.20;99.90;;;;;;5093520;28;20135;-73
2022/01/09 01:12:12;;;;;;;12.88;8.02;;;5.20;99.90;;;;;;5094108;28;20101;-74
2022/01/09 01:14:38;;;;;;;11.85;8.68;;;5.20;99.90;;;;;;5078064;28;20055;-74
2022/01/09 01:17:04;;;;;;;11.82;8.02;;;5.20;99.90;;;;;;5076311;28;20040;-73
2022/01/09 01:19:30;;;;;;;10.32;8.02;;;5.30;99.90;;;;;;5094209;28;20083;-74
2022/01/09 01:21:58;;;;;;;11.60;8.35;;;5.20;99.90;;;;;;5094368;28;20369;-73
2022/01/09 01:24:23;;;;;;;11.32;8.63;;;5.20;99.90;;;;;;5077195;28;20045;-73
2022/01/09 01:26:49;;;;;;;12.52;8.50;;;5.30;99.90;;;;;;5094245;28;20122;-73
2022/01/09 01:29:16;;;;;;;11.55;7.82;;;5.10;99.90;;;;;;5097670;28;20039;-73
2022/01/09 01:31:41;;;;;;;9.13;6.28;;;5.30;99.90;;;;;;5080984;28;20066;-73
2022/01/09 01:34:07;;;;;;;10.00;6.22;;;5.40;99.90;;;;;;5097119;28;20055;-73
2022/01/09 01:36:33;;;;;;;8.98;6.32;;;5.20;99.90;;;;;;5098651;28;20043;-73
2022/01/09 01:38:58;;;;;;;10.13;5.80;;;5.40;99.90;;;;;;5080357;28;20032;-74
2022/01/09 01:41:24;;;;;;;10.85;5.60;;;5.70;99.90;;;;;;5098485;28;20036;-74
2022/01/09 01:43:50;;;;;;;13.45;4.68;;;5.40;99.90;;;;;;5097878;28;20046;-74
2022/01/09 01:46:15;;;;;;;14.57;5.97;;;5.40;99.90;;;;;;5098198;28;20043;-73
2022/01/09 01:48:41;;;;;;;13.40;5.60;;;;;;;;;;5097675;28;20047;-74
2022/01/09 01:51:07;;;;;;;16.33;5.22;;;5.40;99.90;;;;;;5080267;28;20046;-73
2022/01/09 01:53:33;;;;;;;21.30;4.65;;;5.60;99.90;;;;;;5098590;28;20377;-74
2022/01/09 01:56:01;;;;;;;21.45;5.05;;;6.90;99.90;;;;;;5097718;28;20070;-74
2022/01/09 01:58:27;;;;;;;26.63;6.22;;;5.50;99.90;;;;;;5097416;28;20511;-74
2022/01/09 02:00:53;;;;;;;26.83;5.88;;;5.70;99.90;;;;;;5080645;28;20040;-74
2022/01/09 02:03:19;;;;;;;30.35;6.97;;;6.20;99.90;;;;;;5098111;28;20504;-74
2022/01/09 02:05:45;;;;;;;32.50;6.25;;;6.00;99.90;;;;;;5096739;28;20126;-74
2022/01/09 02:08:12;;;;;;;28.55;6.82;;;6.40;99.90;;;;;;5097871;28;20089;-74
2022/01/09 02:10:44;;;;;;;23.05;6.18;;;6.00;99.90;;;;;;5097863;28;20054;-73
2022/01/09 02:13:10;;;;;;;27.55;6.05;;;6.00;99.90;;;;;;5096616;28;20488;-73
2022/01/09 02:15:45;;;;;;;25.92;6.13;;;5.90;99.90;;;;;;5098094;28;20046;-73
2022/01/09 02:18:14;;;;;;;27.63;7.95;;;7.30;99.90;;;;;;5098111;28;20047;-73
2022/01/09 02:20:40;;;;;;;27.48;6.35;;;6.30;99.90;;;;;;5096561;28;20039;-72
2022/01/09 02:23:08;;;;;;;27.30;6.85;;;6.20;99.90;;;;;;5097044;28;20046;-72
2022/01/09 02:25:35;;;;;;;29.80;7.75;;;6.20;99.90;;;;;;5097615;28;20090;-73
2022/01/09 02:28:01;;;;;;;23.27;6.15;;;6.30;99.90;;;;;;5096719;28;20047;-72
2022/01/09 02:30:29;;;;;;;29.58;6.22;;;6.50;99.90;;;;;;5097545;28;20043;-72
2022/01/09 02:32:54;;;;;;;27.65;7.15;;;6.40;99.90;;;;;;5096809;28;20045;-72
2022/01/09 02:35:23;;;;;;;28.45;6.88;;;7.60;99.90;;;;;;5096672;28;20404;-72
2022/01/09 02:37:49;;;;;;;32.15;7.45;;;;;;;;;;5097358;28;20031;-72
2022/01/09 02:40:15;;;;;;;31.42;7.88;;;;;;;;;;5078965;28;20400;-73
2022/01/09 02:42:41;;;;;;;38.65;9.02;;;6.30;99.90;;;;;;5097195;28;20035;-73
2022/01/09 02:45:07;;;;;;;32.47;8.38;;;6.20;99.90;;;;;;5079454;28;20040;-72
2022/01/09 02:47:34;;;;;;;35.28;8.05;;;6.40;99.90;;;;;;5096681;28;20051;-72
2022/01/09 02:50:18;;;;;;;39.88;9.50;;;6.60;99.90;;;;;;5096297;28;20047;-73
2022/01/09 02:52:52;;;;;;;39.15;8.57;;;6.10;99.90;;;;;;5097163;28;20043;-74
2022/01/09 02:55:20;;;;;;;32.17;8.55;;;6.40;99.90;;;;;;5114811;28;20146;-72
2022/01/09 02:57:47;;;;;;;33.22;7.53;;;6.50;99.90;;;;;;5096767;28;20088;-73
2022/01/09 03:00:17;;;;;;;33.10;8.40;;;8.20;99.90;;;;;;5096204;28;20043;-72
2022/01/09 03:02:43;;;;;;;25.65;7.65;;;6.70;99.90;;;;;;5096522;28;20433;-75
2022/01/09 03:05:10;;;;;;;30.75;7.38;;;8.20;99.90;;;;;;5095728;28;20111;-75
2022/01/09 03:07:36;;;;;;;32.45;8.55;;;6.80;99.90;;;;;;5096754;28;20043;-75
2022/01/09 03:10:03;;;;;;;28.80;7.50;;;6.70;99.90;;;;;;5096092;28;20044;-75
2022/01/09 03:12:29;;;;;;;37.47;7.97;;;6.70;99.90;;;;;;5097056;28;20439;-75
2022/01/09 03:14:55;;;;;;;35.65;8.48;;;6.70;99.90;;;;;;5096258;28;20040;-75
2022/01/09 03:17:21;;;;;;;41.20;8.55;;;6.90;99.90;;;;;;5096089;28;20408;-75
2022/01/09 03:19:47;;;;;;;32.35;8.25;;;;;;;;;;5095829;28;20024;-75
2022/01/09 03:22:12;;;;;;;36.22;8.65;;;6.80;99.90;;;;;;5095648;28;20476;-75
2022/01/09 03:24:38;;;;;;;34.17;7.28;;;8.00;99.90;;;;;;5079966;28;20043;-76
2022/01/09 03:27:05;;;;;;;30.35;6.97;;;6.70;99.90;;;;;;5096102;28;20096;-75
2022/01/09 03:29:30;;;;;;;23.75;6.57;;;6.70;99.90;;;;;;5095660;28;20042;-76
2022/01/09 03:31:56;;;;;;;30.20;7.15;;;6.70;99.90;;;;;;5095456;28;20118;-75
2022/01/09 03:34:23;;;;;;;25.42;5.72;;;;;;;;;;5096066;28;20043;-75
2022/01/09 03:36:48;;;;;;;21.33;6.65;;;6.70;99.90;;;;;;5096229;28;20036;-75
2022/01/09 03:39:14;;;;;;;26.95;7.10;;;6.50;99.90;;;;;;5095572;28;20469;-74
2022/01/09 03:41:40;;;;;;;33.63;5.93;;;6.70;99.90;;;;;;5079520;28;20043;-76
2022/01/09 03:44:05;;;;;;;26.48;6.15;;;6.40;99.90;;;;;;5095343;28;20040;-75
2022/01/09 03:46:31;;;;;;;21.10;5.88;;;7.50;99.90;;;;;;5096418;28;20046;-74
2022/01/09 03:48:57;;;;;;;30.15;8.00;;;6.60;99.90;;;;;;5078158;28;20101;-74
2022/01/09 03:51:25;;;;;;;29.98;6.72;;;6.50;99.90;;;;;;5093988;28;20047;-74
2022/01/09 03:53:52;;;;;;;19.13;5.38;;;6.50;99.90;;;;;;5095212;28;20065;-73
2022/01/09 03:56:17;;;;;;;31.20;6.28;;;7.40;99.90;;;;;;5095723;28;20061;-74
2022/01/09 03:58:43;;;;;;;23.52;6.90;;;6.60;99.90;;;;;;5095416;28;20063;-74
2022/01/09 04:01:09;;;;;;;22.90;5.57;;;6.50;99.90;;;;;;5095363;28;20088;-76
2022/01/09 04:03:36;;;;;;;27.33;6.90;;;6.60;99.90;;;;;;5095530;28;20155;-76
2022/01/09 04:06:02;;;;;;;27.92;6.30;;;6.60;99.90;;;;;;5095337;28;20048;-75
2022/01/09 04:08:28;;;;;;;33.80;7.00;;;6.60;99.90;;;;;;5095820;28;20044;-74
2022/01/09 04:10:54;;;;;;;23.55;6.28;;;6.60;99.90;;;;;;5095192;28;20118;-74
2022/01/09 04:13:20;;;;;;;20.88;4.75;;;6.40;99.90;;;;;;5095663;28;20051;-74
2022/01/09 04:15:47;;;;;;;31.48;6.35;;;7.10;99.90;;;;;;5095202;28;20102;-74
2022/01/09 04:18:18;;;;;;;23.45;4.60;;;6.60;99.90;;;;;;5095251;28;20074;-74
2022/01/09 04:20:44;;;;;;;25.33;6.05;;;7.90;99.90;;;;;;5095493;28;20040;-74
2022/01/09 04:23:11;;;;;;;23.52;6.30;;;6.40;99.90;;;;;;5094781;28;20450;-74
2022/01/09 04:25:38;;;;;;;24.02;4.45;;;6.30;99.90;;;;;;5095414;28;20481;-74
2022/01/09 04:28:04;;;;;;;24.30;5.28;;;8.30;99.90;;;;;;5077924;28;20047;-73
2022/01/09 04:30:29;;;;;;;25.67;5.55;;;6.50;99.90;;;;;;5095321;28;20047;-74
2022/01/09 04:32:55;;;;;;;22.67;7.00;;;6.30;99.90;;;;;;5094398;28;20126;-74
2022/01/09 04:35:21;;;;;;;21.15;4.60;;;6.40;99.90;;;;;;5078231;28;20047;-74
2022/01/09 04:37:48;;;;;;;22.67;5.57;;;6.30;99.90;;;;;;5093742;28;20040;-75
2022/01/09 04:40:16;;;;;;;27.13;6.53;;;6.30;99.90;;;;;;5094442;28;20058;-77
2022/01/09 04:42:45;;;;;;;15.45;4.63;;;7.60;99.90;;;;;;5094723;28;20051;-79
2022/01/09 04:45:13;;;;;;;30.95;5.72;;;6.20;99.90;;;;;;5094498;28;20057;-72
2022/01/09 04:47:42;;;;;;;27.48;6.32;;;6.30;99.90;;;;;;5077313;28;20056;-72
2022/01/09 04:50:12;;;;;;;26.35;5.75;;;6.30;99.90;;;;;;5094538;28;20123;-73
2022/01/09 04:52:39;;;;;;;15.15;4.35;;;6.30;99.90;;;;;;5095127;28;20462;-73
2022/01/09 04:55:05;;;;;;;29.95;5.80;;;6.10;99.90;;;;;;5111745;28;20040;-77
2022/01/09 04:57:30;;;;;;;18.17;4.97;;;6.30;99.90;;;;;;5077646;28;20031;-74
2022/01/09 04:59:56;;;;;;;19.15;5.13;;;6.10;99.90;;;;;;5077938;28;20089;-75
2022/01/09 05:02:22;;;;;;;18.30;5.05;;;6.20;99.90;;;;;;5094361;28;20071;-75
2022/01/09 05:04:47;;;;;;;15.98;3.95;;;6.00;99.90;;;;;;5077635;28;20042;-75
2022/01/09 05:07:14;;;;;;;19.52;4.05;;;7.70;99.90;;;;;;5094409;28;20054;-73
2022/01/09 05:09:40;;;;;;;18.45;4.18;;;6.00;99.90;;;;;;5094043;28;20062;-73
2022/01/09 05:12:07;;;;;;;13.88;4.70;;;6.70;99.90;;;;;;5094010;28;20408;-74
2022/01/09 05:14:32;;;;;;;19.20;4.82;;;6.10;99.90;;;;;;5077567;28;20043;-72
2022/01/09 05:16:58;;;;;;;17.90;3.90;;;6.00;99.90;;;;;;5092983;28;20059;-69
2022/01/09 05:19:28;;;;;;;20.75;4.40;;;6.00;99.90;;;;;;5077275;28;20115;-74
2022/01/09 05:21:57;;;;;;;20.38;5.22;;;6.10;99.90;;;;;;5075775;28;20048;-73
2022/01/09 05:24:23;;;;;;;17.23;4.68;;;6.20;99.90;;;;;;5094491;28;20404;-70
2022/01/09 05:26:49;;;;;;;16.50;3.97;;;6.00;99.90;;;;;;5094120;28;20039;-71
2022/01/09 05:29:14;;;;;;;16.48;3.63;;;6.10;99.90;;;;;;5094596;28;20031;-74
2022/01/09 05:31:40;;;;;;;21.60;4.72;;;5.90;99.90;;;;;;5094357;28;20028;-75
2022/01/09 05:34:06;;;;;;;16.95;3.78;;;7.20;99.90;;;;;;5094164;28;20043;-73
2022/01/09 05:36:32;;;;;;;15.50;4.25;;;6.10;99.90;;;;;;5094849;28;20110;-76
2022/01/09 05:38:58;;;;;;;18.17;4.90;;;6.60;99.90;;;;;;5093732;28;20054;-72
2022/01/09 05:41:25;;;;;;;18.13;5.50;;;6.30;99.90;;;;;;5113088;28;20039;-75
2022/01/09 05:43:51;;;;;;;20.60;4.88;;;;;;;;;;5094108;28;20047;-76
2022/01/09 05:46:16;;;;;;;23.02;4.13;;;6.10;99.90;;;;;;5094480;28;20071;-75
2022/01/09 05:48:42;;;;;;;21.80;4.32;;;6.00;99.90;;;;;;5094241;28;20522;-75
2022/01/09 05:51:08;;;;;;;21.23;4.18;;;6.10;99.90;;;;;;5094016;28;20046;-75
2022/01/09 05:53:33;;;;;;;20.98;4.50;;;6.00;99.90;;;;;;5077375;28;20480;-74
2022/01/09 05:55:59;;;;;;;14.65;3.58;;;6.20;99.90;;;;;;5093715;28;20083;-74
2022/01/09 05:58:24;;;;;;;11.48;2.65;;;6.00;99.90;;;;;;5094343;28;20039;-74
2022/01/09 06:00:50;;;;;;;19.13;3.97;;;6.00;99.90;;;;;;5094162;28;20092;-75
2022/01/09 06:03:16;;;;;;;18.02;4.13;;;6.00;99.90;;;;;;5077580;28;20369;-74
2022/01/09 06:05:41;;;;;;;29.10;4.07;;;6.00;99.90;;;;;;5094544;28;20044;-73
2022/01/09 06:08:07;;;;;;;18.48;4.28;;;5.90;99.90;;;;;;5093907;28;20484;-74
2022/01/09 06:10:33;;;;;;;18.05;5.00;;;7.20;99.90;;;;;;5077553;28;20467;-75
2022/01/09 06:12:58;;;;;;;21.15;4.53;;;6.00;99.90;;;;;;5093679;28;20036;-75
2022/01/09 06:15:24;;;;;;;16.25;5.32;;;5.80;99.90;;;;;;5097953;28;20092;-74
2022/01/09 06:17:49;;;;;;;23.85;4.88;;;6.00;99.90;;;;;;5098077;28;20039;-73
2022/01/09 06:20:16;;;;;;;19.17;4.53;;;5.70;99.90;;;;;;5098008;28;20032;-73
2022/01/09 06:22:43;;;;;;;24.67;4.60;;;5.80;99.90;;;;;;5081266;28;20039;-74
2022/01/09 06:25:09;;;;;;;16.05;4.07;;;6.00;99.90;;;;;;5097783;28;20097;-74
2022/01/09 06:27:36;;;;;;;18.35;4.22;;;5.90;99.90;;;;;;5098514;28;20529;-74
2022/01/09 06:30:04;;;;;;;21.30;4.20;;;5.90;99.90;;;;;;5098210;28;20076;-73
2022/01/09 06:32:31;;;;;;;16.77;4.13;;;5.80;99.90;;;;;;5097495;28;20046;-74
2022/01/09 06:34:56;;;;;;;22.58;4.80;;;5.70;99.90;;;;;;5097806;28;20055;-74
2022/01/09 06:37:22;;;;;;;18.15;3.67;;;5.70;99.90;;;;;;5098279;28;20046;-73
2022/01/09 06:39:48;;;;;;;17.17;3.75;;;5.70;99.90;;;;;;5097453;28;20527;-74
2022/01/09 06:42:14;;;;;;;13.77;3.45;;;5.90;99.90;;;;;;5080753;28;20127;-74
2022/01/09 06:44:39;;;;;;;21.48;4.40;;;5.80;99.90;;;;;;5097944;28;20399;-74
2022/01/09 06:47:05;;;;;;;17.83;4.57;;;5.60;99.90;;;;;;5097605;28;20562;-73
2022/01/09 06:49:32;;;;;;;16.27;3.28;;;5.70;99.90;;;;;;5097650;28;20465;-73
2022/01/09 06:51:58;;;;;;;12.30;3.15;;;7.00;99.90;;;;;;5097374;28;20122;-73
2022/01/09 06:54:24;;;;;;;16.15;3.45;;;5.70;99.90;;;;;;5097335;28;20118;-73
2022/01/09 06:56:49;;;;;;;18.90;3.92;;;5.70;99.90;;;;;;5097205;28;20425;-73
2022/01/09 06:59:15;;;;;;;15.98;4.68;;;5.70;99.90;;;;;;5097167;28;20039;-73
2022/01/09 07:01:40;;;;;;;14.85;3.40;;;5.70;99.90;;;;;;5080276;28;20123;-73
2022/01/09 07:04:06;;;;;;;11.75;2.95;;;5.60;99.90;;;;;;5079964;28;20112;-73
2022/01/09 07:06:32;;;;;;;14.70;3.20;;;5.50;99.90;;;;;;5097097;28;20046;-73
2022/01/09 07:08:58;;;;;;;10.82;3.17;;;5.10;99.90;;;;;;5096257;28;20454;-73
2022/01/09 07:11:24;;;;;;;13.88;4.25;;;5.50;99.90;;;;;;5096995;28;20050;-73
2022/01/09 07:13:49;;;;;;;12.27;2.80;;;5.50;99.90;;;;;;5096988;28;20047;-73
2022/01/09 07:16:15;;;;;;;14.55;4.50;;;5.50;99.90;;;;;;5096705;28;20423;-72
2022/01/09 07:18:41;;;;;;;12.85;3.17;;;5.50;99.90;;;;;;5096538;28;20040;-72
2022/01/09 07:21:06;;;;;;;11.25;3.30;;;5.20;99.90;;;;;;5096174;28;20043;-72
2022/01/09 07:23:32;;;;;;;20.15;3.75;;;7.30;99.90;;;;;;5078992;28;20035;-72
2022/01/09 07:25:58;;;;;;;11.00;2.97;;;5.10;99.90;;;;;;5096266;28;20050;-73
2022/01/09 07:28:23;;;;;;;14.98;2.78;;;5.20;99.90;;;;;;5096881;28;20090;-74
2022/01/09 07:30:49;;;;;;;11.82;3.15;;;5.10;99.90;;;;;;5079725;28;20492;-74
2022/01/09 07:33:15;;;;;;;15.10;2.67;;;;;;;;;;5095893;28;20512;-74
2022/01/09 07:35:41;;;;;;;12.23;2.63;;;5.40;99.90;;;;;;5079731;28;20059;-74
2022/01/09 07:38:06;;;;;;;11.00;2.72;;;5.30;99.90;;;;;;5095791;28;20488;-73
2022/01/09 07:40:32;;;;;;;14.77;3.00;;;5.30;99.90;;;;;;5096310;28;20040;-73
2022/01/09 07:42:58;;;;;;;16.98;3.17;;;5.30;99.90;;;;;;5096002;28;20036;-73
2022/01/09 07:45:27;;;;;;;13.85;3.05;;;5.30;99.90;;;;;;5096521;28;20442;-73
2022/01/09 07:47:54;;;;;;;13.52;3.38;;;5.30;99.90;;;;;;5096137;28;20075;-74
2022/01/09 07:50:22;;;;;;;14.40;2.38;;;5.30;99.90;;;;;;5096011;28;20047;-74
2022/01/09 07:52:48;;;;;;;14.82;2.65;;;5.30;99.90;;;;;;5096186;28;20079;-73
2022/01/09 07:55:14;;;;;;;11.25;2.40;;;5.30;99.90;;;;;;5095789;28;20075;-73
2022/01/09 07:57:40;;;;;;;11.48;3.15;;;7.60;99.90;;;;;;5096192;28;20093;-73
2022/01/09 08:00:09;;;;;;;12.57;3.53;;;5.30;99.90;;;;;;5095970;28;20075;-73
2022/01/09 08:02:35;;;;;;;15.27;3.03;;;5.30;99.90;;;;;;5096467;28;20035;-73
2022/01/09 08:05:01;;;;;;;10.90;2.40;;;5.30;99.90;;;;;;5078851;28;20604;-73
2022/01/09 08:07:26;;;;;;;22.45;3.10;;;5.30;99.90;;;;;;5079522;28;20060;-73
2022/01/09 08:09:52;;;;;;;9.88;3.55;;;7.10;99.90;;;;;;5095743;28;20051;-73
2022/01/09 08:12:18;;;;;;;15.15;2.15;;;5.30;99.90;;;;;;5079136;28;20040;-73
2022/01/09 08:14:45;;;;;;;13.32;4.55;;;5.20;99.90;;;;;;5096160;28;20055;-73
2022/01/09 08:17:12;;;;;;;15.50;3.30;;;5.30;99.90;;;;;;5078892;28;20458;-73
2022/01/09 08:19:38;;;;;;;8.23;2.33;;;5.20;99.90;;;;;;5095773;28;20040;-73
2022/01/09 08:22:05;;;;;;;15.35;3.15;;;5.20;99.90;;;;;;5094775;28;20051;-73
2022/01/09 08:24:31;;;;;;;14.60;4.82;;;5.30;99.90;;;;;;5095786;28;20040;-74
2022/01/09 08:26:57;;;;;;;12.57;3.15;;;5.30;99.90;;;;;;5095347;28;20078;-74
2022/01/09 08:29:23;;;;;;;16.20;4.50;;;5.20;99.90;;;;;;5078830;28;20040;-74
2022/01/09 08:31:49;;;;;;;14.55;3.17;;;5.30;99.90;;;;;;5095250;28;20036;-74
2022/01/09 08:34:15;;;;;;;13.30;2.65;;;5.40;99.90;;;;;;5095366;28;20492;-74
2022/01/09 08:36:41;;;;;;;9.57;2.13;;;5.40;99.90;;;;;;5094805;28;20051;-74
2022/01/09 08:39:07;;;;;;;16.40;3.13;;;5.40;99.90;;;;;;5095029;28;20048;-74
2022/01/09 08:41:33;;;;;;;10.32;3.15;;;5.40;99.90;;;;;;5095620;28;20047;-74
2022/01/09 08:44:01;;;;;;;9.75;2.13;;;5.40;99.90;;;;;;5078775;28;20463;-74
2022/01/09 08:46:28;;;;;;;8.88;2.03;;;5.40;99.90;;;;;;5094985;28;20044;-74
2022/01/09 08:48:54;;;;;;;7.28;2.63;;;6.60;99.90;;;;;;5094858;28;20108;-73
2022/01/09 08:51:20;;;;;;;7.70;1.70;;;5.40;99.90;;;;;;5095874;28;20047;-74
2022/01/09 08:53:50;;;;;;;7.45;2.00;;;5.60;99.90;;;;;;5078456;28;20050;-74
2022/01/09 08:56:20;;;;;;;9.13;2.00;;;5.40;99.90;;;;;;5095573;28;20040;-74
2022/01/09 08:58:47;;;;;;;7.35;1.67;;;5.40;99.90;;;;;;5095073;28;20519;-73
2022/01/09 09:01:13;;;;;;;10.40;1.85;;;5.30;99.90;;;;;;5094985;28;20402;-73
2022/01/09 09:03:42;;;;;;;9.45;2.10;;;5.40;99.90;;;;;;5095900;28;20442;-74
2022/01/09 09:06:17;;;;;;;13.38;3.47;;;5.30;99.90;;;;;;5094545;28;20042;-74
2022/01/09 09:08:43;;;;;;;15.27;2.58;;;6.80;99.90;;;;;;5094687;28;20048;-73
2022/01/09 09:11:11;;;;;;;11.73;2.50;;;5.30;99.90;;;;;;5093904;28;20127;-73
2022/01/09 09:13:37;;;;;;;9.88;2.47;;;5.10;99.90;;;;;;5073814;28;20050;-75
2022/01/09 09:16:04;;;;;;;7.57;1.90;;;5.40;99.90;;;;;;5074438;28;20438;-75
2022/01/09 09:18:30;;;;;;;11.20;2.60;;;;;;;;;;5076070;28;20377;-73
2022/01/09 09:20:56;;;;;;;9.40;2.00;;;5.30;99.90;;;;;;5090555;28;20084;-70
2022/01/09 09:23:23;;;;;;;10.70;1.98;;;5.60;99.90;;;;;;5091848;28;20097;-69
2022/01/09 09:25:50;;;;;;;13.38;2.13;;;;;;;;;;5091235;28;20548;-69
2022/01/09 09:28:16;;;;;;;9.70;2.50;;;5.30;99.90;;;;;;5090520;28;20048;-69
2022/01/09 09:30:41;;;;;;;10.50;2.30;;;5.30;99.90;;;;;;5073694;28;20104;-74
2022/01/09 09:33:07;;;;;;;10.15;2.25;;;5.30;99.90;;;;;;5091683;28;20035;-74
2022/01/09 09:35:34;;;;;;;6.97;2.00;;;5.70;99.90;;;;;;5075337;28;20051;-76
2022/01/09 09:37:59;;;;;;;9.13;2.20;;;5.30;99.90;;;;;;5083880;28;20032;-72
2022/01/09 09:40:25;;;;;;;8.60;2.30;;;5.30;99.90;;;;;;5078738;28;20120;-75
2022/01/09 09:42:51;;;;;;;10.30;2.38;;;5.50;99.90;;;;;;5092165;28;20488;-73
2022/01/09 09:45:17;;;;;;;12.52;4.05;;;;;;;;;;5093289;28;20051;-74
2022/01/09 09:47:43;;;;;;;14.77;2.53;;;5.50;99.90;;;;;;5092963;28;20071;-73
2022/01/09 09:50:11;;;;;;;11.43;2.33;;;5.40;99.90;;;;;;5095372;28;20478;-72
2022/01/09 09:52:37;;;;;;;11.88;2.58;;;5.50;99.90;;;;;;5079226;28;20047;-76
2022/01/09 09:55:04;;;;;;;12.63;3.08;;;5.60;99.90;;;;;;5096761;28;20052;-74
2022/01/09 09:57:29;;;;;;;11.23;2.65;;;5.40;99.90;;;;;;5098651;28;20043;-73
2022/01/09 10:00:06;;;;;;;9.43;2.40;;;5.40;99.90;;;;;;5096271;28;20506;-74
2022/01/09 10:02:57;;;;;;;15.35;2.88;;;5.60;99.90;;;;;;5096469;28;20048;-75
2022/01/09 10:05:25;;;;;;;11.90;2.67;;;5.90;99.90;;;;;;5079885;28;20488;-74
2022/01/09 10:07:52;;;;;;;12.02;3.15;;;5.60;99.90;;;;;;5097325;28;20403;-75
2022/01/09 10:10:22;;;;;;;10.68;2.92;;;5.70;99.90;;;;;;5097402;28;20039;-74
2022/01/09 10:12:48;;;;;;;11.95;2.72;;;5.40;99.90;;;;;;5096049;28;20055;-74
2022/01/09 10:15:20;;;;;;;37.92;4.63;;;5.40;99.90;;;;;;5096161;28;20050;-69
2022/01/09 10:17:50;;;;;;;13.93;3.83;;;5.60;99.90;;;;;;5094131;28;20077;-73
2022/01/09 10:20:22;;;;;;;17.42;3.38;;;5.70;99.90;;;;;;5097474;28;20680;-74
2022/01/09 10:22:53;;;;;;;12.18;3.70;;;5.70;99.90;;;;;;5097640;28;20039;-74
2022/01/09 10:25:24;;;;;;;10.65;4.57;;;5.90;99.90;;;;;;5097151;28;20074;-73
2022/01/09 10:27:55;;;;;;;9.20;2.55;;;5.70;99.90;;;;;;5097565;28;20047;-74
2022/01/09 10:30:23;;;;;;;8.65;2.28;;;6.30;99.90;;;;;;5096193;28;20074;-74
2022/01/09 10:32:58;;;;;;;10.63;1.85;;;6.00;99.90;;;;;;5097397;28;20043;-73
2022/01/09 10:35:26;;;;;;;10.88;2.25;;;5.60;99.90;;;;;;5097326;28;20432;-73
2022/01/09 10:38:03;;;;;;;12.73;2.28;;;5.80;99.90;;;;;;5096275;28;20092;-73
2022/01/09 10:40:30;;;;;;;11.73;3.08;;;5.60;99.90;;;;;;5096773;28;20173;-74
2022/01/09 10:43:16;;;;;;;10.48;3.03;;;5.80;99.90;;;;;;5097268;28;20047;-74
2022/01/09 10:45:58;;;;;;;7.22;2.22;;;5.70;99.90;;;;;;5096986;28;20058;-75
2022/01/09 10:48:36;;;;;;;11.63;2.63;;;5.70;99.90;;;;;;5095590;28;20451;-70
2022/01/09 10:51:04;;;;;;;8.60;2.03;;;5.70;99.90;;;;;;5091908;28;20461;-70
2022/01/09 10:53:37;;;;;;;12.38;2.28;;;6.40;99.90;;;;;;5093721;28;20071;-72
2022/01/09 10:56:18;;;;;;;13.20;3.00;;;6.30;99.90;;;;;;5096766;28;20040;-72
2022/01/09 10:58:45;;;;;;;16.30;2.90;;;6.20;99.90;;;;;;5076911;28;20032;-72
2022/01/09 11:01:30;;;;;;;10.20;2.38;;;6.20;99.90;;;;;;5096152;28;20056;-72
2022/01/09 11:04:00;;;;;;;9.68;2.53;;;6.30;99.90;;;;;;5095952;28;20083;-71
2022/01/09 11:06:28;;;;;;;8.45;2.38;;;6.30;99.90;;;;;;5096260;28;20430;-72
2022/01/09 11:09:00;;;;;;;14.75;2.65;;;6.40;99.90;;;;;;5095773;28;20039;-71
2022/01/09 11:11:36;;;;;;;11.40;2.53;;;6.20;99.90;;;;;;5095168;28;20399;-72
2022/01/09 11:14:05;;;;;;;10.85;2.10;;;6.70;99.90;;;;;;5094963;28;20817;-72
2022/01/09 11:16:33;;;;;;;11.63;2.40;;;7.10;99.90;;;;;;5095438;28;20533;-72
2022/01/09 11:19:06;;;;;;;13.95;3.15;;;8.30;99.90;;;;;;5095104;28;20040;-73
2022/01/09 11:21:32;;;;;;;11.13;2.55;;;6.70;99.90;;;;;;5078759;28;20035;-72
2022/01/09 11:24:34;;;;;;;10.25;2.13;;;6.50;99.90;;;;;;5094625;28;20524;-72
2022/01/09 11:27:27;;;;;;;10.55;2.40;;;6.80;99.90;;;;;;5096260;28;20040;-72
2022/01/09 11:30:21;;;;;;;8.45;2.90;;;6.70;99.90;;;;;;5093410;28;20042;-71
2022/01/09 11:32:55;;;;;;;10.15;2.47;;;6.80;99.90;;;;;;5095598;28;20039;-72
2022/01/09 11:35:54;;;;;;;10.45;1.83;;;6.90;99.90;;;;;;5095044;28;20048;-73
2022/01/09 11:38:48;;;;;;;12.73;2.25;;;7.00;99.90;;;;;;5095596;28;20040;-72
2022/01/09 11:41:14;;;;;;;10.75;2.58;;;7.00;99.90;;;;;;5109945;27;20043;-72
2022/01/09 11:43:58;;;;;;;9.70;2.30;;;7.00;99.90;;;;;;5092260;28;20142;-71
2022/01/09 11:46:26;;;;;;;12.60;3.25;;;7.10;99.90;;;;;;5095778;28;20134;-71
2022/01/09 11:48:51;;;;;;;11.15;2.78;;;7.00;99.90;;;;;;5078271;28;20126;-71
2022/01/09 11:51:19;;;;;;;12.95;2.72;;;7.10;99.90;;;;;;5095633;28;20176;-72
2022/01/09 11:53:59;;;;;;;8.05;3.03;;;7.10;99.90;;;;;;5113861;28;20429;-72
2022/01/09 11:56:46;;;;;;;11.20;2.28;;;7.00;99.90;;;;;;5077757;28;20092;-71
2022/01/09 11:59:40;;;;;;;11.02;2.45;;;7.00;99.90;;;;;;5095689;28;20400;-72
2022/01/09 12:02:17;;;;;;;16.20;2.95;;;7.00;99.90;;;;;;5075748;28;20047;-72
2022/01/09 12:04:45;;;;;;;8.32;2.25;;;6.90;99.90;;;;;;5120523;27;20053;-73
2022/01/09 12:07:42;;;;;;;8.93;2.53;;;6.90;99.90;;;;;;5093704;28;20115;-71
2022/01/09 12:10:36;;;;;;;8.80;2.80;;;6.30;99.90;;;;;;5089108;28;20044;-72
2022/01/09 12:13:04;;;;;;;16.70;3.08;;;7.10;99.90;;;;;;5091932;28;20039;-74
2022/01/09 12:15:39;;;;;;;8.57;2.20;;;7.00;99.90;;;;;;5093004;28;20707;-74
2022/01/09 12:18:07;;;;;;;;;;;8.30;99.90;;;;;;5092758;28;20047;-73
2022/01/09 12:20:38;;;;;;;12.40;3.05;;;7.20;99.90;;;;;;5093492;28;19920;-73
2022/01/09 12:23:06;;;;;;;8.52;2.40;;;7.10;99.90;;;;;;5092321;28;20464;-77
2022/01/09 12:25:35;;;;;;;9.38;2.63;;;7.30;99.90;;;;;;5094363;28;20053;-76
2022/01/09 12:28:06;;;;;;;6.97;2.05;;;7.30;99.90;;;;;;5090035;28;20052;-77
2022/01/09 12:30:33;;;;;;;8.50;2.35;;;7.20;99.90;;;;;;5092146;28;20047;-75
2022/01/09 12:33:06;;;;;;;9.52;2.60;;;7.10;99.90;;;;;;5094639;28;20058;-76
2022/01/09 12:35:33;;;;;;;12.20;3.60;;;7.10;99.90;;;;;;5078866;28;20550;-75
2022/01/09 12:38:00;;;;;;;8.18;1.83;;;7.70;99.90;;;;;;5093658;28;20404;-75
2022/01/09 12:40:28;;;;;;;13.25;2.85;;;6.70;99.90;;;;;;5087223;28;20043;-77
2022/01/09 12:42:56;;;;;;;12.20;2.65;;;6.80;99.90;;;;;;5088344;28;20051;-76
2022/01/09 12:45:28;;;;;;;9.80;2.92;;;6.40;99.90;;;;;;5091324;28;20039;-76
2022/01/09 12:47:55;;;;;;;9.52;2.42;;;6.80;99.90;;;;;;5109890;28;20044;-77
2022/01/09 12:50:27;;;;;;;5.88;1.88;;;6.70;99.90;;;;;;5092927;28;20047;-76
2022/01/09 12:53:30;;;;;;;9.65;2.20;;;6.70;99.90;;;;;;5091453;28;20054;-76
2022/01/09 12:56:02;;;;;;;7.45;2.38;;;6.70;99.90;;;;;;5091769;28;20138;-76
2022/01/09 12:58:30;;;;;;;6.03;1.75;;;6.60;99.90;;;;;;5074925;28;20040;-74